Terminal Aerodrome Forecast
Issued by NWS

Home | Current Version | Previous Version | Text Only | Print | Product List | Glossary On
Versions: 1 2 3 4 5 6 7 8 9 10 11 12
000
FTUS45 KRIW 042331
TAFPNA
TAF
KPNA 042331Z 0500/0524 20008G14KT P6SM SCT100
     FM050300 VRB06KT P6SM SCT080 SCT150
     FM052000 20011G19KT P6SM SCT080 BKN110
      AMD LTD TO CLD VIS AND WIND=

USA.gov is the U.S. government's official web portal to all federal, state and local government web resources and services.